sensor_id;sensor_type;location;lat;lon;timestamp;temperature;humidity
28161;DHT22;15448;51.956;7.670;2022-09-09T00:01:32;22.40;63.90
28161;DHT22;15448;51.956;7.670;2022-09-09T00:04:23;22.30;64.00
28161;DHT22;15448;51.956;7.670;2022-09-09T00:09:27;22.40;63.80
28161;DHT22;15448;51.956;7.670;2022-09-09T00:12:41;22.40;64.10
28161;DHT22;15448;51.956;7.670;2022-09-09T00:15:13;22.40;63.90
28161;DHT22;15448;51.956;7.670;2022-09-09T00:17:53;22.40;63.90
28161;DHT22;15448;51.956;7.670;2022-09-09T00:25:53;22.40;63.90
28161;DHT22;15448;51.956;7.670;2022-09-09T00:28:25;22.40;64.10
28161;DHT22;15448;51.956;7.670;2022-09-09T00:30:50;22.40;64.70
28161;DHT22;15448;51.956;7.670;2022-09-09T00:33:19;22.40;64.00
28161;DHT22;15448;51.956;7.670;2022-09-09T00:35:51;22.40;63.90
28161;DHT22;15448;51.956;7.670;2022-09-09T00:38:23;22.40;64.00
28161;DHT22;15448;51.956;7.670;2022-09-09T00:41:42;22.40;64.10
28161;DHT22;15448;51.956;7.670;2022-09-09T00:43:39;22.40;64.00
28161;DHT22;15448;51.956;7.670;2022-09-09T00:46:26;22.30;64.10
28161;DHT22;15448;51.956;7.670;2022-09-09T00:52:26;22.30;64.00
28161;DHT22;15448;51.956;7.670;2022-09-09T00:57:38;22.30;64.20
28161;DHT22;15448;51.956;7.670;2022-09-09T01:03:13;22.30;64.70
28161;DHT22;15448;51.956;7.670;2022-09-09T01:06:00;22.30;63.80
28161;DHT22;15448;51.956;7.670;2022-09-09T01:14:40;22.30;64.30
28161;DHT22;15448;51.956;7.670;2022-09-09T01:17:20;22.60;64.30
28161;DHT22;15448;51.956;7.670;2022-09-09T01:22:34;22.30;64.10
28161;DHT22;15448;51.956;7.670;2022-09-09T01:25:22;22.20;64.10
28161;DHT22;15448;51.956;7.670;2022-09-09T01:27:51;22.20;64.10
28161;DHT22;15448;51.956;7.670;2022-09-09T01:30:18;22.20;64.10
28161;DHT22;15448;51.956;7.670;2022-09-09T01:32:46;22.20;64.10
28161;DHT22;15448;51.956;7.670;2022-09-09T01:37:48;22.20;63.90
28161;DHT22;15448;51.956;7.670;2022-09-09T01:40:13;22.20;63.90
28161;DHT22;15448;51.956;7.670;2022-09-09T01:42:39;22.10;63.80
28161;DHT22;15448;51.956;7.670;2022-09-09T01:45:05;22.10;63.70
28161;DHT22;15448;51.956;7.670;2022-09-09T01:47:31;22.20;63.90
28161;DHT22;15448;51.956;7.670;2022-09-09T01:49:57;22.10;63.50
28161;DHT22;15448;51.956;7.670;2022-09-09T01:52:22;22.20;64.00
28161;DHT22;15448;51.956;7.670;2022-09-09T01:54:48;22.20;63.90
28161;DHT22;15448;51.956;7.670;2022-09-09T01:57:27;22.20;63.60
28161;DHT22;15448;51.956;7.670;2022-09-09T02:00:08;22.20;63.60
28161;DHT22;15448;51.956;7.670;2022-09-09T02:02:44;22.10;63.70
28161;DHT22;15448;51.956;7.670;2022-09-09T02:05:30;22.20;63.70
28161;DHT22;15448;51.956;7.670;2022-09-09T02:08:06;22.20;63.50
28161;DHT22;15448;51.956;7.670;2022-09-09T02:13:12;22.10;63.70
28161;DHT22;15448;51.956;7.670;2022-09-09T02:15:52;22.20;63.90
28161;DHT22;15448;51.956;7.670;2022-09-09T02:18:35;22.20;63.60
28161;DHT22;15448;51.956;7.670;2022-09-09T02:21:03;22.10;63.70
28161;DHT22;15448;51.956;7.670;2022-09-09T02:23:32;22.10;63.80
28161;DHT22;15448;51.956;7.670;2022-09-09T02:25:58;22.00;63.60
28161;DHT22;15448;51.956;7.670;2022-09-09T02:28:27;22.00;63.90
28161;DHT22;15448;51.956;7.670;2022-09-09T02:30:54;22.10;63.80
28161;DHT22;15448;51.956;7.670;2022-09-09T02:33:27;22.10;63.80
28161;DHT22;15448;51.956;7.670;2022-09-09T02:35:55;22.10;63.80
28161;DHT22;15448;51.956;7.670;2022-09-09T02:38:28;22.10;63.70
28161;DHT22;15448;51.956;7.670;2022-09-09T02:40:54;22.00;63.70
28161;DHT22;15448;51.956;7.670;2022-09-09T02:43:20;22.00;63.90
28161;DHT22;15448;51.956;7.670;2022-09-09T02:45:53;22.00;63.80
28161;DHT22;15448;51.956;7.670;2022-09-09T02:48:30;22.00;63.80
28161;DHT22;15448;51.956;7.670;2022-09-09T02:51:08;22.00;64.10
28161;DHT22;15448;51.956;7.670;2022-09-09T02:56:27;22.00;64.00
28161;DHT22;15448;51.956;7.670;2022-09-09T02:58:55;22.00;64.00
28161;DHT22;15448;51.956;7.670;2022-09-09T03:01:21;22.00;64.20
28161;DHT22;15448;51.956;7.670;2022-09-09T03:03:47;22.00;64.10
28161;DHT22;15448;51.956;7.670;2022-09-09T03:06:13;21.90;63.70
28161;DHT22;15448;51.956;7.670;2022-09-09T03:08:40;21.80;64.10
28161;DHT22;15448;51.956;7.670;2022-09-09T03:11:05;21.60;63.80
28161;DHT22;15448;51.956;7.670;2022-09-09T03:13:31;21.50;64.20
28161;DHT22;15448;51.956;7.670;2022-09-09T03:15:57;21.30;64.40
28161;DHT22;15448;51.956;7.670;2022-09-09T03:18:22;21.30;65.00
28161;DHT22;15448;51.956;7.670;2022-09-09T03:20:48;21.50;65.70
28161;DHT22;15448;51.956;7.670;2022-09-09T03:23:14;21.60;65.50
28161;DHT22;15448;51.956;7.670;2022-09-09T03:25:46;21.70;65.30
28161;DHT22;15448;51.956;7.670;2022-09-09T03:28:12;21.70;65.00
28161;DHT22;15448;51.956;7.670;2022-09-09T03:30:37;21.80;65.10
28161;DHT22;15448;51.956;7.670;2022-09-09T03:33:03;21.70;65.00
28161;DHT22;15448;51.956;7.670;2022-09-09T03:35:29;21.80;65.00
28161;DHT22;15448;51.956;7.670;2022-09-09T03:37:55;21.80;65.30
28161;DHT22;15448;51.956;7.670;2022-09-09T03:40:21;21.70;65.10
28161;DHT22;15448;51.956;7.670;2022-09-09T03:42:46;21.70;65.20
28161;DHT22;15448;51.956;7.670;2022-09-09T03:45:13;21.60;65.10
28161;DHT22;15448;51.956;7.670;2022-09-09T03:47:39;21.50;65.00
28161;DHT22;15448;51.956;7.670;2022-09-09T03:50:06;21.40;65.40
28161;DHT22;15448;51.956;7.670;2022-09-09T03:52:38;21.30;65.50
28161;DHT22;15448;51.956;7.670;2022-09-09T03:55:04;21.30;65.50
28161;DHT22;15448;51.956;7.670;2022-09-09T03:57:31;21.20;65.70
28161;DHT22;15448;51.956;7.670;2022-09-09T03:59:57;21.30;65.50
28161;DHT22;15448;51.956;7.670;2022-09-09T04:02:23;21.40;65.40
28161;DHT22;15448;51.956;7.670;2022-09-09T04:04:49;21.30;65.20
28161;DHT22;15448;51.956;7.670;2022-09-09T04:07:15;21.30;65.10
28161;DHT22;15448;51.956;7.670;2022-09-09T04:09:41;21.40;65.10
28161;DHT22;15448;51.956;7.670;2022-09-09T04:12:06;21.40;65.00
28161;DHT22;15448;51.956;7.670;2022-09-09T04:14:32;21.40;64.90
28161;DHT22;15448;51.956;7.670;2022-09-09T04:16:58;21.40;65.10
28161;DHT22;15448;51.956;7.670;2022-09-09T04:19:24;21.30;65.00
28161;DHT22;15448;51.956;7.670;2022-09-09T04:21:50;21.40;65.10
28161;DHT22;15448;51.956;7.670;2022-09-09T04:24:17;21.40;64.90
28161;DHT22;15448;51.956;7.670;2022-09-09T04:26:42;21.40;65.10
28161;DHT22;15448;51.956;7.670;2022-09-09T04:29:08;21.40;65.00
28161;DHT22;15448;51.956;7.670;2022-09-09T04:31:34;21.30;65.00
28161;DHT22;15448;51.956;7.670;2022-09-09T04:33:59;21.30;65.10
28161;DHT22;15448;51.956;7.670;2022-09-09T04:36:31;21.30;65.10
28161;DHT22;15448;51.956;7.670;2022-09-09T04:38:57;21.30;65.10
28161;DHT22;15448;51.956;7.670;2022-09-09T04:41:22;21.30;65.20
28161;DHT22;15448;51.956;7.670;2022-09-09T04:43:49;21.30;65.20
28161;DHT22;15448;51.956;7.670;2022-09-09T04:46:14;21.20;65.10
28161;DHT22;15448;51.956;7.670;2022-09-09T04:48:42;21.20;65.30
28161;DHT22;15448;51.956;7.670;2022-09-09T04:51:11;21.20;65.30
28161;DHT22;15448;51.956;7.670;2022-09-09T04:53:38;21.30;65.20
28161;DHT22;15448;51.956;7.670;2022-09-09T04:56:09;21.30;65.20
28161;DHT22;15448;51.956;7.670;2022-09-09T04:58:35;21.20;65.20
28161;DHT22;15448;51.956;7.670;2022-09-09T05:01:04;21.30;65.30
28161;DHT22;15448;51.956;7.670;2022-09-09T05:03:29;21.30;65.40
28161;DHT22;15448;51.956;7.670;2022-09-09T05:06:02;21.20;65.30
28161;DHT22;15448;51.956;7.670;2022-09-09T05:08:29;21.20;65.40
28161;DHT22;15448;51.956;7.670;2022-09-09T05:10:54;21.20;65.50
28161;DHT22;15448;51.956;7.670;2022-09-09T05:13:20;21.20;65.30
28161;DHT22;15448;51.956;7.670;2022-09-09T05:15:53;21.20;65.50
28161;DHT22;15448;51.956;7.670;2022-09-09T05:18:19;21.30;65.40
28161;DHT22;15448;51.956;7.670;2022-09-09T05:20:44;21.20;65.30
28161;DHT22;15448;51.956;7.670;2022-09-09T05:23:10;21.10;65.90
28161;DHT22;15448;51.956;7.670;2022-09-09T05:25:37;21.10;66.00
28161;DHT22;15448;51.956;7.670;2022-09-09T05:28:03;21.00;65.80
28161;DHT22;15448;51.956;7.670;2022-09-09T05:30:28;21.00;66.10
28161;DHT22;15448;51.956;7.670;2022-09-09T05:32:56;21.00;66.10
28161;DHT22;15448;51.956;7.670;2022-09-09T05:35:21;21.00;66.10
28161;DHT22;15448;51.956;7.670;2022-09-09T05:37:48;21.10;66.70
28161;DHT22;15448;51.956;7.670;2022-09-09T05:40:14;20.90;65.70
28161;DHT22;15448;51.956;7.670;2022-09-09T05:42:40;21.10;65.80
28161;DHT22;15448;51.956;7.670;2022-09-09T05:45:07;21.10;65.80
28161;DHT22;15448;51.956;7.670;2022-09-09T05:47:34;21.10;65.90
28161;DHT22;15448;51.956;7.670;2022-09-09T05:50:00;21.10;65.80
28161;DHT22;15448;51.956;7.670;2022-09-09T05:52:26;21.10;65.80
28161;DHT22;15448;51.956;7.670;2022-09-09T05:54:52;21.10;65.80
28161;DHT22;15448;51.956;7.670;2022-09-09T05:57:19;21.10;65.90
28161;DHT22;15448;51.956;7.670;2022-09-09T05:59:45;21.10;65.80
28161;DHT22;15448;51.956;7.670;2022-09-09T06:02:11;21.20;66.10
28161;DHT22;15448;51.956;7.670;2022-09-09T06:04:37;21.10;65.90
28161;DHT22;15448;51.956;7.670;2022-09-09T06:07:04;21.20;66.00
28161;DHT22;15448;51.956;7.670;2022-09-09T06:09:30;21.10;66.00
28161;DHT22;15448;51.956;7.670;2022-09-09T06:11:56;21.10;66.10
28161;DHT22;15448;51.956;7.670;2022-09-09T06:14:23;21.10;66.20
28161;DHT22;15448;51.956;7.670;2022-09-09T06:16:49;21.10;66.00
28161;DHT22;15448;51.956;7.670;2022-09-09T06:19:15;21.10;66.20
28161;DHT22;15448;51.956;7.670;2022-09-09T06:21:40;21.10;66.20
28161;DHT22;15448;51.956;7.670;2022-09-09T06:24:08;21.20;66.20
28161;DHT22;15448;51.956;7.670;2022-09-09T06:26:35;21.10;66.10
28161;DHT22;15448;51.956;7.670;2022-09-09T06:29:02;21.10;66.20
28161;DHT22;15448;51.956;7.670;2022-09-09T06:31:30;21.10;66.20
28161;DHT22;15448;51.956;7.670;2022-09-09T06:33:57;21.10;66.40
28161;DHT22;15448;51.956;7.670;2022-09-09T06:36:29;21.10;66.30
28161;DHT22;15448;51.956;7.670;2022-09-09T06:38:55;21.10;66.60
28161;DHT22;15448;51.956;7.670;2022-09-09T06:41:22;21.10;66.40
28161;DHT22;15448;51.956;7.670;2022-09-09T06:43:49;21.10;66.40
28161;DHT22;15448;51.956;7.670;2022-09-09T06:48:45;21.10;66.30
28161;DHT22;15448;51.956;7.670;2022-09-09T06:51:13;21.10;66.40
28161;DHT22;15448;51.956;7.670;2022-09-09T06:53:40;21.10;66.60
28161;DHT22;15448;51.956;7.670;2022-09-09T06:58:50;21.20;66.60
28161;DHT22;15448;51.956;7.670;2022-09-09T07:01:21;21.10;66.80
28161;DHT22;15448;51.956;7.670;2022-09-09T07:03:50;21.10;66.60
28161;DHT22;15448;51.956;7.670;2022-09-09T07:06:24;21.10;66.60
28161;DHT22;15448;51.956;7.670;2022-09-09T07:08:58;21.10;66.80
28161;DHT22;15448;51.956;7.670;2022-09-09T07:11:26;21.10;66.80
28161;DHT22;15448;51.956;7.670;2022-09-09T07:13:52;21.10;66.60
28161;DHT22;15448;51.956;7.670;2022-09-09T07:16:21;21.20;66.60
28161;DHT22;15448;51.956;7.670;2022-09-09T07:18:48;21.20;66.50
28161;DHT22;15448;51.956;7.670;2022-09-09T07:21:16;21.20;67.10
28161;DHT22;15448;51.956;7.670;2022-09-09T07:23:41;21.30;66.30
28161;DHT22;15448;51.956;7.670;2022-09-09T07:26:09;21.30;66.20
28161;DHT22;15448;51.956;7.670;2022-09-09T07:28:35;21.30;66.20
28161;DHT22;15448;51.956;7.670;2022-09-09T07:31:02;21.30;66.10
28161;DHT22;15448;51.956;7.670;2022-09-09T07:33:28;21.40;65.90
28161;DHT22;15448;51.956;7.670;2022-09-09T07:36:03;21.40;66.00
28161;DHT22;15448;51.956;7.670;2022-09-09T07:38:29;21.50;65.80
28161;DHT22;15448;51.956;7.670;2022-09-09T07:41:05;21.50;66.30
28161;DHT22;15448;51.956;7.670;2022-09-09T07:43:32;21.50;65.50
28161;DHT22;15448;51.956;7.670;2022-09-09T07:45:58;21.50;65.50
28161;DHT22;15448;51.956;7.670;2022-09-09T07:48:24;21.50;65.70
28161;DHT22;15448;51.956;7.670;2022-09-09T07:50:51;21.60;65.40
28161;DHT22;15448;51.956;7.670;2022-09-09T07:53:16;21.60;65.40
28161;DHT22;15448;51.956;7.670;2022-09-09T07:55:42;21.60;65.20
28161;DHT22;15448;51.956;7.670;2022-09-09T07:58:08;21.60;65.20
28161;DHT22;15448;51.956;7.670;2022-09-09T08:00:33;21.60;65.10
28161;DHT22;15448;51.956;7.670;2022-09-09T08:02:59;21.60;65.10
